Ashern, Canada
Current Conditions -  °F | °C
As of 10:02 PM on Saturday 25 Oct 2014 (Local Time) from CYDN Reporting Station
Haze Haze  
Wind Chill: 29°   Ceiling: Unl
Heat Index: 34°   Visibility: 5mi
Dew Point: 25°   Wind: 6mph
Humidity: 70%   Direction: 270°W
Pressure: 29.94"   Gusts: NA
Location:  51.18°N, 98.33°W
Report Text: CYDN 260302Z AUTO 27005KT 5SM HZ CLR 01/M04 A2994 RMK SLP153
Loading
Personal Weather Stations






























Interactive Weather Map
Tropical Storm Tracking
New forecast layout! Learn more

10-Day Weather Forecast

Advertisements
Track Severe Weather on mobile